sensor_id;sensor_type;location;lat;lon;timestamp;P1;durP1;ratioP1;P2;durP2;ratioP2
67816;SDS011;54614;47.576;7.524;2023-12-07T00:01:05;2.63;;;2.00;;
67816;SDS011;54614;47.576;7.524;2023-12-07T00:03:31;2.57;;;2.37;;
67816;SDS011;54614;47.576;7.524;2023-12-07T00:05:57;3.27;;;2.20;;
67816;SDS011;54614;47.576;7.524;2023-12-07T00:08:23;3.33;;;2.50;;
67816;SDS011;54614;47.576;7.524;2023-12-07T00:10:49;5.97;;;2.67;;
67816;SDS011;54614;47.576;7.524;2023-12-07T00:13:15;6.13;;;2.87;;
67816;SDS011;54614;47.576;7.524;2023-12-07T00:15:40;3.60;;;2.60;;
67816;SDS011;54614;47.576;7.524;2023-12-07T00:18:06;3.73;;;2.77;;
67816;SDS011;54614;47.576;7.524;2023-12-07T00:20:32;5.87;;;2.90;;
67816;SDS011;54614;47.576;7.524;2023-12-07T00:22:58;4.30;;;2.60;;
67816;SDS011;54614;47.576;7.524;2023-12-07T00:25:23;3.53;;;2.60;;
67816;SDS011;54614;47.576;7.524;2023-12-07T00:27:49;5.23;;;2.87;;
67816;SDS011;54614;47.576;7.524;2023-12-07T00:30:15;3.00;;;2.33;;
67816;SDS011;54614;47.576;7.524;2023-12-07T00:32:41;3.67;;;2.60;;
67816;SDS011;54614;47.576;7.524;2023-12-07T00:35:08;3.70;;;2.57;;
67816;SDS011;54614;47.576;7.524;2023-12-07T00:37:35;3.20;;;2.40;;
67816;SDS011;54614;47.576;7.524;2023-12-07T00:40:01;3.80;;;2.50;;
67816;SDS011;54614;47.576;7.524;2023-12-07T00:42:28;5.43;;;2.70;;
67816;SDS011;54614;47.576;7.524;2023-12-07T00:44:54;5.07;;;2.57;;
67816;SDS011;54614;47.576;7.524;2023-12-07T00:47:20;4.13;;;2.60;;
67816;SDS011;54614;47.576;7.524;2023-12-07T00:49:47;4.03;;;2.73;;
67816;SDS011;54614;47.576;7.524;2023-12-07T00:52:13;2.83;;;2.30;;
67816;SDS011;54614;47.576;7.524;2023-12-07T00:54:39;6.37;;;2.57;;
67816;SDS011;54614;47.576;7.524;2023-12-07T00:57:05;3.40;;;2.53;;
67816;SDS011;54614;47.576;7.524;2023-12-07T00:59:32;3.87;;;2.60;;
67816;SDS011;54614;47.576;7.524;2023-12-07T01:02:01;4.10;;;2.50;;
67816;SDS011;54614;47.576;7.524;2023-12-07T01:04:33;3.87;;;2.60;;
67816;SDS011;54614;47.576;7.524;2023-12-07T01:06:58;4.30;;;2.50;;
67816;SDS011;54614;47.576;7.524;2023-12-07T01:09:25;3.13;;;2.37;;
67816;SDS011;54614;47.576;7.524;2023-12-07T01:11:51;4.07;;;2.53;;
67816;SDS011;54614;47.576;7.524;2023-12-07T01:14:17;3.70;;;2.50;;
67816;SDS011;54614;47.576;7.524;2023-12-07T01:16:43;5.20;;;2.70;;
67816;SDS011;54614;47.576;7.524;2023-12-07T01:19:10;3.80;;;2.70;;
67816;SDS011;54614;47.576;7.524;2023-12-07T01:21:39;4.60;;;2.50;;
67816;SDS011;54614;47.576;7.524;2023-12-07T01:24:09;5.90;;;2.73;;
67816;SDS011;54614;47.576;7.524;2023-12-07T01:26:35;3.70;;;2.60;;
67816;SDS011;54614;47.576;7.524;2023-12-07T01:29:00;5.07;;;2.67;;
67816;SDS011;54614;47.576;7.524;2023-12-07T01:31:27;6.03;;;2.90;;
67816;SDS011;54614;47.576;7.524;2023-12-07T01:33:54;3.63;;;2.73;;
67816;SDS011;54614;47.576;7.524;2023-12-07T01:36:20;4.07;;;2.80;;
67816;SDS011;54614;47.576;7.524;2023-12-07T01:38:45;4.63;;;2.80;;
67816;SDS011;54614;47.576;7.524;2023-12-07T01:41:11;4.13;;;2.60;;
67816;SDS011;54614;47.576;7.524;2023-12-07T01:43:37;3.67;;;2.50;;
67816;SDS011;54614;47.576;7.524;2023-12-07T01:46:09;3.30;;;2.47;;
67816;SDS011;54614;47.576;7.524;2023-12-07T01:48:36;5.40;;;2.77;;
67816;SDS011;54614;47.576;7.524;2023-12-07T01:51:02;4.30;;;2.53;;
67816;SDS011;54614;47.576;7.524;2023-12-07T01:53:28;3.97;;;2.50;;
67816;SDS011;54614;47.576;7.524;2023-12-07T01:55:55;4.10;;;2.60;;
67816;SDS011;54614;47.576;7.524;2023-12-07T01:58:22;4.90;;;2.67;;
67816;SDS011;54614;47.576;7.524;2023-12-07T02:00:48;3.63;;;2.53;;
67816;SDS011;54614;47.576;7.524;2023-12-07T02:03:14;3.43;;;2.70;;
67816;SDS011;54614;47.576;7.524;2023-12-07T02:05:43;3.13;;;2.37;;
67816;SDS011;54614;47.576;7.524;2023-12-07T02:08:13;3.37;;;2.50;;
67816;SDS011;54614;47.576;7.524;2023-12-07T02:10:39;3.40;;;2.43;;
67816;SDS011;54614;47.576;7.524;2023-12-07T02:13:05;3.73;;;2.67;;
67816;SDS011;54614;47.576;7.524;2023-12-07T02:15:32;3.23;;;2.60;;
67816;SDS011;54614;47.576;7.524;2023-12-07T02:23:47;4.57;;;2.43;;
67816;SDS011;54614;47.576;7.524;2023-12-07T02:26:18;3.20;;;2.53;;
67816;SDS011;54614;47.576;7.524;2023-12-07T02:28:46;3.30;;;2.50;;
67816;SDS011;54614;47.576;7.524;2023-12-07T02:31:13;3.33;;;2.30;;
67816;SDS011;54614;47.576;7.524;2023-12-07T02:33:38;3.07;;;2.40;;
67816;SDS011;54614;47.576;7.524;2023-12-07T02:36:04;3.20;;;2.27;;
67816;SDS011;54614;47.576;7.524;2023-12-07T02:38:30;3.57;;;2.50;;
67816;SDS011;54614;47.576;7.524;2023-12-07T02:40:57;4.13;;;2.20;;
67816;SDS011;54614;47.576;7.524;2023-12-07T02:43:26;3.33;;;2.40;;
67816;SDS011;54614;47.576;7.524;2023-12-07T02:45:53;6.43;;;2.40;;
67816;SDS011;54614;47.576;7.524;2023-12-07T02:48:20;3.03;;;2.13;;
67816;SDS011;54614;47.576;7.524;2023-12-07T02:50:46;2.50;;;2.17;;
67816;SDS011;54614;47.576;7.524;2023-12-07T02:53:12;3.97;;;2.20;;
67816;SDS011;54614;47.576;7.524;2023-12-07T02:55:38;3.03;;;2.20;;
67816;SDS011;54614;47.576;7.524;2023-12-07T02:58:03;3.43;;;2.37;;
67816;SDS011;54614;47.576;7.524;2023-12-07T03:00:30;2.63;;;2.30;;
67816;SDS011;54614;47.576;7.524;2023-12-07T03:02:55;2.87;;;2.47;;
67816;SDS011;54614;47.576;7.524;2023-12-07T03:05:21;4.03;;;2.40;;
67816;SDS011;54614;47.576;7.524;2023-12-07T03:07:48;3.07;;;2.30;;
67816;SDS011;54614;47.576;7.524;2023-12-07T03:10:13;5.73;;;2.50;;
67816;SDS011;54614;47.576;7.524;2023-12-07T03:12:39;5.70;;;2.40;;
67816;SDS011;54614;47.576;7.524;2023-12-07T03:15:05;4.50;;;2.60;;
67816;SDS011;54614;47.576;7.524;2023-12-07T03:17:31;3.43;;;2.30;;
67816;SDS011;54614;47.576;7.524;2023-12-07T03:19:57;6.57;;;2.37;;
67816;SDS011;54614;47.576;7.524;2023-12-07T03:22:23;3.30;;;2.30;;
67816;SDS011;54614;47.576;7.524;2023-12-07T03:24:51;5.03;;;2.40;;
67816;SDS011;54614;47.576;7.524;2023-12-07T03:27:17;3.03;;;2.27;;
67816;SDS011;54614;47.576;7.524;2023-12-07T03:29:43;3.10;;;2.23;;
67816;SDS011;54614;47.576;7.524;2023-12-07T03:32:09;3.10;;;2.30;;
67816;SDS011;54614;47.576;7.524;2023-12-07T03:34:35;4.07;;;2.40;;
67816;SDS011;54614;47.576;7.524;2023-12-07T03:37:01;3.37;;;2.20;;
67816;SDS011;54614;47.576;7.524;2023-12-07T03:39:28;4.27;;;2.23;;
67816;SDS011;54614;47.576;7.524;2023-12-07T03:41:54;5.03;;;2.47;;
67816;SDS011;54614;47.576;7.524;2023-12-07T03:44:20;2.57;;;2.20;;
67816;SDS011;54614;47.576;7.524;2023-12-07T03:46:46;3.37;;;2.23;;
67816;SDS011;54614;47.576;7.524;2023-12-07T03:49:11;3.03;;;2.10;;
67816;SDS011;54614;47.576;7.524;2023-12-07T03:51:37;3.33;;;2.40;;
67816;SDS011;54614;47.576;7.524;2023-12-07T03:54:03;3.23;;;2.13;;
67816;SDS011;54614;47.576;7.524;2023-12-07T03:56:31;3.33;;;2.60;;
67816;SDS011;54614;47.576;7.524;2023-12-07T03:58:58;2.67;;;2.17;;
67816;SDS011;54614;47.576;7.524;2023-12-07T04:01:24;2.83;;;2.20;;
67816;SDS011;54614;47.576;7.524;2023-12-07T04:03:52;3.10;;;2.10;;
67816;SDS011;54614;47.576;7.524;2023-12-07T04:06:22;3.67;;;2.30;;
67816;SDS011;54614;47.576;7.524;2023-12-07T04:08:50;2.70;;;2.20;;
67816;SDS011;54614;47.576;7.524;2023-12-07T04:11:15;2.67;;;2.10;;
67816;SDS011;54614;47.576;7.524;2023-12-07T04:13:42;4.50;;;2.53;;
67816;SDS011;54614;47.576;7.524;2023-12-07T04:16:09;4.77;;;2.30;;
67816;SDS011;54614;47.576;7.524;2023-12-07T04:18:35;2.20;;;2.00;;
67816;SDS011;54614;47.576;7.524;2023-12-07T04:21:02;2.90;;;2.10;;
67816;SDS011;54614;47.576;7.524;2023-12-07T04:23:28;3.33;;;2.40;;
67816;SDS011;54614;47.576;7.524;2023-12-07T04:25:54;2.13;;;1.90;;
67816;SDS011;54614;47.576;7.524;2023-12-07T04:28:20;3.47;;;2.03;;
67816;SDS011;54614;47.576;7.524;2023-12-07T04:30:46;5.20;;;2.20;;
67816;SDS011;54614;47.576;7.524;2023-12-07T04:33:12;3.73;;;2.10;;
67816;SDS011;54614;47.576;7.524;2023-12-07T04:35:37;2.37;;;2.17;;
67816;SDS011;54614;47.576;7.524;2023-12-07T04:38:03;2.20;;;2.00;;
67816;SDS011;54614;47.576;7.524;2023-12-07T04:40:29;4.73;;;2.23;;
67816;SDS011;54614;47.576;7.524;2023-12-07T04:42:55;3.40;;;2.00;;
67816;SDS011;54614;47.576;7.524;2023-12-07T04:45:20;2.17;;;2.07;;
67816;SDS011;54614;47.576;7.524;2023-12-07T04:47:47;3.03;;;2.30;;
67816;SDS011;54614;47.576;7.524;2023-12-07T04:50:13;2.30;;;2.10;;
67816;SDS011;54614;47.576;7.524;2023-12-07T04:52:39;2.60;;;2.30;;
67816;SDS011;54614;47.576;7.524;2023-12-07T04:55:05;2.73;;;2.17;;
67816;SDS011;54614;47.576;7.524;2023-12-07T04:57:33;4.53;;;2.27;;
67816;SDS011;54614;47.576;7.524;2023-12-07T05:00:00;3.17;;;2.30;;
67816;SDS011;54614;47.576;7.524;2023-12-07T05:02:31;3.53;;;2.63;;
67816;SDS011;54614;47.576;7.524;2023-12-07T05:04:57;3.57;;;2.47;;
67816;SDS011;54614;47.576;7.524;2023-12-07T05:07:23;4.47;;;3.23;;
67816;SDS011;54614;47.576;7.524;2023-12-07T05:09:49;6.00;;;3.43;;
67816;SDS011;54614;47.576;7.524;2023-12-07T05:12:18;4.90;;;3.73;;
67816;SDS011;54614;47.576;7.524;2023-12-07T05:14:44;6.30;;;4.13;;
67816;SDS011;54614;47.576;7.524;2023-12-07T05:17:09;6.83;;;4.23;;
67816;SDS011;54614;47.576;7.524;2023-12-07T05:19:35;10.33;;;4.70;;
67816;SDS011;54614;47.576;7.524;2023-12-07T05:22:01;7.37;;;5.43;;
67816;SDS011;54614;47.576;7.524;2023-12-07T05:24:27;11.00;;;6.63;;
67816;SDS011;54614;47.576;7.524;2023-12-07T05:26:53;10.27;;;6.60;;
67816;SDS011;54614;47.576;7.524;2023-12-07T05:29:20;10.07;;;6.73;;
67816;SDS011;54614;47.576;7.524;2023-12-07T05:31:48;9.97;;;6.87;;
67816;SDS011;54614;47.576;7.524;2023-12-07T05:34:15;10.77;;;6.90;;
67816;SDS011;54614;47.576;7.524;2023-12-07T05:36:42;13.80;;;7.07;;
67816;SDS011;54614;47.576;7.524;2023-12-07T05:39:08;9.87;;;6.77;;
67816;SDS011;54614;47.576;7.524;2023-12-07T05:41:36;11.60;;;6.67;;
67816;SDS011;54614;47.576;7.524;2023-12-07T05:44:02;10.73;;;7.17;;
67816;SDS011;54614;47.576;7.524;2023-12-07T05:46:29;9.83;;;6.33;;
67816;SDS011;54614;47.576;7.524;2023-12-07T05:48:54;9.33;;;6.27;;
67816;SDS011;54614;47.576;7.524;2023-12-07T05:51:20;10.97;;;6.67;;
67816;SDS011;54614;47.576;7.524;2023-12-07T05:53:48;8.77;;;6.03;;
67816;SDS011;54614;47.576;7.524;2023-12-07T05:56:17;8.83;;;6.17;;
67816;SDS011;54614;47.576;7.524;2023-12-07T05:58:45;9.80;;;6.50;;
67816;SDS011;54614;47.576;7.524;2023-12-07T06:01:12;9.30;;;5.50;;
67816;SDS011;54614;47.576;7.524;2023-12-07T06:03:43;7.53;;;5.70;;
67816;SDS011;54614;47.576;7.524;2023-12-07T06:06:10;9.73;;;5.73;;
67816;SDS011;54614;47.576;7.524;2023-12-07T06:08:39;8.93;;;5.77;;
67816;SDS011;54614;47.576;7.524;2023-12-07T06:11:06;9.43;;;5.87;;
67816;SDS011;54614;47.576;7.524;2023-12-07T06:13:32;8.37;;;5.03;;
67816;SDS011;54614;47.576;7.524;2023-12-07T06:15:58;11.70;;;5.30;;
67816;SDS011;54614;47.576;7.524;2023-12-07T06:18:26;7.97;;;4.63;;
67816;SDS011;54614;47.576;7.524;2023-12-07T06:20:52;9.80;;;5.00;;
67816;SDS011;54614;47.576;7.524;2023-12-07T06:23:18;8.93;;;4.47;;
67816;SDS011;54614;47.576;7.524;2023-12-07T06:25:44;7.50;;;4.50;;
67816;SDS011;54614;47.576;7.524;2023-12-07T06:28:10;8.33;;;4.47;;
67816;SDS011;54614;47.576;7.524;2023-12-07T06:30:35;6.57;;;4.23;;
67816;SDS011;54614;47.576;7.524;2023-12-07T06:33:01;7.17;;;4.27;;
67816;SDS011;54614;47.576;7.524;2023-12-07T06:35:27;5.90;;;4.17;;
67816;SDS011;54614;47.576;7.524;2023-12-07T06:37:54;7.73;;;4.20;;
67816;SDS011;54614;47.576;7.524;2023-12-07T06:40:19;7.70;;;4.30;;
67816;SDS011;54614;47.576;7.524;2023-12-07T06:42:45;7.20;;;3.80;;
67816;SDS011;54614;47.576;7.524;2023-12-07T06:45:11;6.20;;;3.87;;
67816;SDS011;54614;47.576;7.524;2023-12-07T06:47:39;7.17;;;4.27;;
67816;SDS011;54614;47.576;7.524;2023-12-07T06:50:07;11.47;;;3.80;;
67816;SDS011;54614;47.576;7.524;2023-12-07T06:52:37;15.53;;;4.20;;
67816;SDS011;54614;47.576;7.524;2023-12-07T06:55:04;10.60;;;3.40;;
67816;SDS011;54614;47.576;7.524;2023-12-07T06:57:30;7.93;;;3.43;;
67816;SDS011;54614;47.576;7.524;2023-12-07T06:59:57;15.27;;;3.50;;
67816;SDS011;54614;47.576;7.524;2023-12-07T07:02:22;6.50;;;3.70;;
67816;SDS011;54614;47.576;7.524;2023-12-07T07:04:49;11.70;;;3.30;;
67816;SDS011;54614;47.576;7.524;2023-12-07T07:07:15;6.97;;;3.53;;
67816;SDS011;54614;47.576;7.524;2023-12-07T07:09:41;7.30;;;3.20;;
67816;SDS011;54614;47.576;7.524;2023-12-07T07:12:07;5.37;;;3.10;;
67816;SDS011;54614;47.576;7.524;2023-12-07T07:14:33;8.93;;;3.03;;
67816;SDS011;54614;47.576;7.524;2023-12-07T07:16:59;9.47;;;3.37;;
67816;SDS011;54614;47.576;7.524;2023-12-07T07:19:25;7.77;;;3.30;;
67816;SDS011;54614;47.576;7.524;2023-12-07T07:21:51;6.73;;;3.30;;
67816;SDS011;54614;47.576;7.524;2023-12-07T07:24:16;11.07;;;3.90;;
67816;SDS011;54614;47.576;7.524;2023-12-07T07:26:42;7.43;;;3.03;;
67816;SDS011;54614;47.576;7.524;2023-12-07T07:29:08;8.33;;;3.10;;
67816;SDS011;54614;47.576;7.524;2023-12-07T07:31:33;9.23;;;2.93;;
67816;SDS011;54614;47.576;7.524;2023-12-07T07:34:00;4.57;;;3.07;;
67816;SDS011;54614;47.576;7.524;2023-12-07T07:36:26;6.27;;;3.00;;
67816;SDS011;54614;47.576;7.524;2023-12-07T07:38:52;7.07;;;3.30;;
67816;SDS011;54614;47.576;7.524;2023-12-07T07:41:17;4.80;;;3.00;;
67816;SDS011;54614;47.576;7.524;2023-12-07T07:43:43;4.97;;;2.97;;
67816;SDS011;54614;47.576;7.524;2023-12-07T07:46:10;3.93;;;2.73;;
67816;SDS011;54614;47.576;7.524;2023-12-07T07:48:35;6.00;;;2.90;;
67816;SDS011;54614;47.576;7.524;2023-12-07T07:51:02;5.77;;;2.80;;
67816;SDS011;54614;47.576;7.524;2023-12-07T07:53:28;3.30;;;3.00;;
67816;SDS011;54614;47.576;7.524;2023-12-07T07:55:54;2.73;;;2.40;;
67816;SDS011;54614;47.576;7.524;2023-12-07T07:58:20;3.17;;;2.80;;
67816;SDS011;54614;47.576;7.524;2023-12-07T08:00:46;3.43;;;2.80;;
67816;SDS011;54614;47.576;7.524;2023-12-07T08:03:12;5.30;;;2.63;;
67816;SDS011;54614;47.576;7.524;2023-12-07T08:05:38;5.63;;;2.70;;
67816;SDS011;54614;47.576;7.524;2023-12-07T08:08:03;3.57;;;2.57;;
67816;SDS011;54614;47.576;7.524;2023-12-07T08:10:29;2.97;;;2.30;;
67816;SDS011;54614;47.576;7.524;2023-12-07T08:12:55;3.13;;;2.70;;
67816;SDS011;54614;47.576;7.524;2023-12-07T08:15:21;3.03;;;2.13;;
67816;SDS011;54614;47.576;7.524;2023-12-07T08:17:47;2.90;;;2.33;;
67816;SDS011;54614;47.576;7.524;2023-12-07T08:20:12;3.40;;;2.43;;
67816;SDS011;54614;47.576;7.524;2023-12-07T08:22:39;4.73;;;2.43;;
67816;SDS011;54614;47.576;7.524;2023-12-07T08:25:06;3.13;;;2.20;;
67816;SDS011;54614;47.576;7.524;2023-12-07T08:27:34;2.73;;;2.30;;
67816;SDS011;54614;47.576;7.524;2023-12-07T08:30:03;5.77;;;2.53;;
67816;SDS011;54614;47.576;7.524;2023-12-07T08:32:30;3.93;;;2.20;;
67816;SDS011;54614;47.576;7.524;2023-12-07T08:34:56;2.47;;;2.13;;
67816;SDS011;54614;47.576;7.524;2023-12-07T08:37:22;2.23;;;2.03;;
67816;SDS011;54614;47.576;7.524;2023-12-07T08:39:47;2.53;;;2.33;;
67816;SDS011;54614;47.576;7.524;2023-12-07T08:42:14;2.30;;;2.07;;
67816;SDS011;54614;47.576;7.524;2023-12-07T08:44:39;2.50;;;2.30;;
67816;SDS011;54614;47.576;7.524;2023-12-07T08:47:06;2.63;;;2.30;;
67816;SDS011;54614;47.576;7.524;2023-12-07T08:49:32;3.23;;;2.23;;
67816;SDS011;54614;47.576;7.524;2023-12-07T08:51:57;3.30;;;1.90;;
67816;SDS011;54614;47.576;7.524;2023-12-07T08:54:23;4.63;;;2.33;;
67816;SDS011;54614;47.576;7.524;2023-12-07T08:56:49;2.77;;;2.00;;
67816;SDS011;54614;47.576;7.524;2023-12-07T08:59:16;2.40;;;2.20;;
67816;SDS011;54614;47.576;7.524;2023-12-07T09:01:41;2.90;;;2.20;;
67816;SDS011;54614;47.576;7.524;2023-12-07T09:04:07;2.70;;;2.20;;
67816;SDS011;54614;47.576;7.524;2023-12-07T09:06:33;2.37;;;2.10;;
67816;SDS011;54614;47.576;7.524;2023-12-07T09:09:01;3.50;;;2.10;;
67816;SDS011;54614;47.576;7.524;2023-12-07T09:11:29;2.13;;;1.93;;
67816;SDS011;54614;47.576;7.524;2023-12-07T09:13:56;2.00;;;1.90;;
67816;SDS011;54614;47.576;7.524;2023-12-07T09:16:23;3.17;;;2.10;;
67816;SDS011;54614;47.576;7.524;2023-12-07T09:18:49;2.30;;;2.10;;
67816;SDS011;54614;47.576;7.524;2023-12-07T09:21:15;1.90;;;1.80;;
67816;SDS011;54614;47.576;7.524;2023-12-07T09:23:41;3.40;;;2.30;;
67816;SDS011;54614;47.576;7.524;2023-12-07T09:26:07;2.40;;;2.00;;
67816;SDS011;54614;47.576;7.524;2023-12-07T09:28:33;2.00;;;1.90;;
67816;SDS011;54614;47.576;7.524;2023-12-07T09:30:59;2.40;;;2.20;;
67816;SDS011;54614;47.576;7.524;2023-12-07T09:33:24;2.27;;;1.90;;
67816;SDS011;54614;47.576;7.524;2023-12-07T09:35:50;2.00;;;1.80;;
67816;SDS011;54614;47.576;7.524;2023-12-07T09:38:16;2.17;;;2.03;;
67816;SDS011;54614;47.576;7.524;2023-12-07T09:40:42;2.30;;;2.10;;
67816;SDS011;54614;47.576;7.524;2023-12-07T09:43:11;2.23;;;2.03;;
67816;SDS011;54614;47.576;7.524;2023-12-07T09:45:37;2.50;;;2.10;;
67816;SDS011;54614;47.576;7.524;2023-12-07T09:48:06;1.90;;;1.80;;
67816;SDS011;54614;47.576;7.524;2023-12-07T09:50:33;2.27;;;2.07;;
67816;SDS011;54614;47.576;7.524;2023-12-07T09:52:59;2.00;;;1.80;;
67816;SDS011;54614;47.576;7.524;2023-12-07T09:55:25;2.17;;;1.97;;
67816;SDS011;54614;47.576;7.524;2023-12-07T09:57:50;2.43;;;2.23;;
67816;SDS011;54614;47.576;7.524;2023-12-07T10:00:19;2.20;;;2.00;;
67816;SDS011;54614;47.576;7.524;2023-12-07T10:02:45;2.30;;;2.10;;
67816;SDS011;54614;47.576;7.524;2023-12-07T10:05:14;1.90;;;1.80;;
67816;SDS011;54614;47.576;7.524;2023-12-07T10:07:45;2.40;;;2.20;;
67816;SDS011;54614;47.576;7.524;2023-12-07T10:10:14;2.40;;;2.20;;
67816;SDS011;54614;47.576;7.524;2023-12-07T10:15:16;3.43;;;2.00;;
67816;SDS011;54614;47.576;7.524;2023-12-07T10:17:51;2.20;;;2.00;;
67816;SDS011;54614;47.576;7.524;2023-12-07T10:20:25;2.10;;;1.90;;
67816;SDS011;54614;47.576;7.524;2023-12-07T10:23:04;1.90;;;1.80;;
67816;SDS011;54614;47.576;7.524;2023-12-07T10:25:37;2.20;;;2.03;;
67816;SDS011;54614;47.576;7.524;2023-12-07T10:28:06;2.23;;;2.03;;
67816;SDS011;54614;47.576;7.524;2023-12-07T10:30:36;2.30;;;2.10;;
67816;SDS011;54614;47.576;7.524;2023-12-07T10:33:04;1.90;;;1.80;;
67816;SDS011;54614;47.576;7.524;2023-12-07T10:35:32;2.03;;;1.93;;
67816;SDS011;54614;47.576;7.524;2023-12-07T10:37:58;1.87;;;1.77;;
67816;SDS011;54614;47.576;7.524;2023-12-07T10:40:24;1.90;;;1.80;;
67816;SDS011;54614;47.576;7.524;2023-12-07T10:42:51;2.00;;;1.90;;
67816;SDS011;54614;47.576;7.524;2023-12-07T10:45:22;1.97;;;1.87;;
67816;SDS011;54614;47.576;7.524;2023-12-07T10:47:51;1.93;;;1.83;;
67816;SDS011;54614;47.576;7.524;2023-12-07T10:50:21;1.90;;;1.80;;
67816;SDS011;54614;47.576;7.524;2023-12-07T10:52:52;2.00;;;1.90;;
67816;SDS011;54614;47.576;7.524;2023-12-07T10:55:24;2.00;;;1.87;;
67816;SDS011;54614;47.576;7.524;2023-12-07T10:57:59;2.07;;;1.87;;
67816;SDS011;54614;47.576;7.524;2023-12-07T11:00:27;1.90;;;1.80;;
67816;SDS011;54614;47.576;7.524;2023-12-07T11:02:54;2.10;;;1.90;;
67816;SDS011;54614;47.576;7.524;2023-12-07T11:05:21;2.33;;;1.90;;
67816;SDS011;54614;47.576;7.524;2023-12-07T11:13:17;1.90;;;1.80;;
67816;SDS011;54614;47.576;7.524;2023-12-07T11:15:49;2.13;;;1.93;;
67816;SDS011;54614;47.576;7.524;2023-12-07T11:18:15;1.93;;;1.83;;
67816;SDS011;54614;47.576;7.524;2023-12-07T11:20:45;2.10;;;2.00;;
67816;SDS011;54614;47.576;7.524;2023-12-07T11:23:21;1.90;;;1.80;;
67816;SDS011;54614;47.576;7.524;2023-12-07T11:25:48;1.90;;;1.80;;
67816;SDS011;54614;47.576;7.524;2023-12-07T11:28:17;2.07;;;1.87;;
67816;SDS011;54614;47.576;7.524;2023-12-07T11:30:46;1.80;;;1.70;;
67816;SDS011;54614;47.576;7.524;2023-12-07T11:33:14;2.23;;;2.03;;
67816;SDS011;54614;47.576;7.524;2023-12-07T11:38:32;1.77;;;1.67;;
67816;SDS011;54614;47.576;7.524;2023-12-07T11:40:59;1.80;;;1.70;;
67816;SDS011;54614;47.576;7.524;2023-12-07T11:46:03;1.93;;;1.83;;
67816;SDS011;54614;47.576;7.524;2023-12-07T11:48:29;1.80;;;1.70;;
67816;SDS011;54614;47.576;7.524;2023-12-07T11:53:31;1.87;;;1.77;;
67816;SDS011;54614;47.576;7.524;2023-12-07T11:55:59;2.07;;;1.87;;
67816;SDS011;54614;47.576;7.524;2023-12-07T11:58:28;1.70;;;1.60;;
67816;SDS011;54614;47.576;7.524;2023-12-07T12:00:56;1.97;;;1.87;;
67816;SDS011;54614;47.576;7.524;2023-12-07T12:03:26;1.93;;;1.83;;
67816;SDS011;54614;47.576;7.524;2023-12-07T12:05:53;1.70;;;1.60;;
67816;SDS011;54614;47.576;7.524;2023-12-07T12:08:21;1.70;;;1.60;;
67816;SDS011;54614;47.576;7.524;2023-12-07T12:10:47;1.77;;;1.67;;
67816;SDS011;54614;47.576;7.524;2023-12-07T12:13:17;1.90;;;1.80;;
67816;SDS011;54614;47.576;7.524;2023-12-07T12:15:44;1.77;;;1.67;;
67816;SDS011;54614;47.576;7.524;2023-12-07T12:18:14;1.70;;;1.60;;
67816;SDS011;54614;47.576;7.524;2023-12-07T12:20:41;2.00;;;1.80;;
67816;SDS011;54614;47.576;7.524;2023-12-07T12:23:09;1.80;;;1.70;;
67816;SDS011;54614;47.576;7.524;2023-12-07T12:25:35;1.40;;;1.40;;
67816;SDS011;54614;47.576;7.524;2023-12-07T12:28:02;1.57;;;1.50;;
67816;SDS011;54614;47.576;7.524;2023-12-07T12:30:29;1.60;;;1.50;;
67816;SDS011;54614;47.576;7.524;2023-12-07T12:32:56;1.43;;;1.37;;
67816;SDS011;54614;47.576;7.524;2023-12-07T12:35:23;1.67;;;1.57;;
67816;SDS011;54614;47.576;7.524;2023-12-07T12:37:49;1.43;;;1.33;;
67816;SDS011;54614;47.576;7.524;2023-12-07T12:40:16;1.77;;;1.60;;
67816;SDS011;54614;47.576;7.524;2023-12-07T12:42:45;1.70;;;1.30;;
67816;SDS011;54614;47.576;7.524;2023-12-07T12:45:20;1.47;;;1.37;;
67816;SDS011;54614;47.576;7.524;2023-12-07T12:47:46;1.50;;;1.40;;
67816;SDS011;54614;47.576;7.524;2023-12-07T12:50:59;1.53;;;1.43;;
67816;SDS011;54614;47.576;7.524;2023-12-07T12:53:04;1.50;;;1.40;;
67816;SDS011;54614;47.576;7.524;2023-12-07T12:55:34;1.40;;;1.40;;
67816;SDS011;54614;47.576;7.524;2023-12-07T12:58:03;1.33;;;1.30;;
67816;SDS011;54614;47.576;7.524;2023-12-07T13:00:32;1.30;;;1.30;;
67816;SDS011;54614;47.576;7.524;2023-12-07T13:03:03;1.50;;;1.40;;
67816;SDS011;54614;47.576;7.524;2023-12-07T13:05:30;1.50;;;1.40;;
67816;SDS011;54614;47.576;7.524;2023-12-07T13:07:58;1.47;;;1.40;;
67816;SDS011;54614;47.576;7.524;2023-12-07T13:10:27;1.37;;;1.37;;
67816;SDS011;54614;47.576;7.524;2023-12-07T13:12:53;1.40;;;1.40;;
67816;SDS011;54614;47.576;7.524;2023-12-07T13:15:19;1.30;;;1.30;;
67816;SDS011;54614;47.576;7.524;2023-12-07T13:17:45;1.53;;;1.43;;
67816;SDS011;54614;47.576;7.524;2023-12-07T13:20:11;1.50;;;1.40;;
67816;SDS011;54614;47.576;7.524;2023-12-07T13:22:40;1.40;;;1.30;;
67816;SDS011;54614;47.576;7.524;2023-12-07T13:25:08;1.23;;;1.23;;
67816;SDS011;54614;47.576;7.524;2023-12-07T13:27:35;1.50;;;1.40;;
67816;SDS011;54614;47.576;7.524;2023-12-07T13:30:04;1.27;;;1.27;;
67816;SDS011;54614;47.576;7.524;2023-12-07T13:32:34;1.50;;;1.40;;
67816;SDS011;54614;47.576;7.524;2023-12-07T13:35:02;1.37;;;1.30;;
67816;SDS011;54614;47.576;7.524;2023-12-07T13:37:30;1.50;;;1.40;;
67816;SDS011;54614;47.576;7.524;2023-12-07T13:39:57;1.50;;;1.40;;
67816;SDS011;54614;47.576;7.524;2023-12-07T13:42:24;1.40;;;1.30;;
67816;SDS011;54614;47.576;7.524;2023-12-07T13:44:55;1.47;;;1.37;;
67816;SDS011;54614;47.576;7.524;2023-12-07T13:47:25;1.40;;;1.30;;
67816;SDS011;54614;47.576;7.524;2023-12-07T13:50:03;1.30;;;1.30;;
67816;SDS011;54614;47.576;7.524;2023-12-07T13:52:30;1.33;;;1.33;;
67816;SDS011;54614;47.576;7.524;2023-12-07T13:54:57;1.23;;;1.23;;
67816;SDS011;54614;47.576;7.524;2023-12-07T13:57:23;1.60;;;1.50;;
67816;SDS011;54614;47.576;7.524;2023-12-07T13:59:49;1.70;;;1.60;;
67816;SDS011;54614;47.576;7.524;2023-12-07T14:02:16;1.27;;;1.27;;
67816;SDS011;54614;47.576;7.524;2023-12-07T14:04:43;1.53;;;1.43;;
67816;SDS011;54614;47.576;7.524;2023-12-07T14:07:13;1.27;;;1.27;;
67816;SDS011;54614;47.576;7.524;2023-12-07T14:09:41;1.50;;;1.40;;
67816;SDS011;54614;47.576;7.524;2023-12-07T14:12:12;1.37;;;1.37;;
67816;SDS011;54614;47.576;7.524;2023-12-07T14:14:42;1.30;;;1.30;;
67816;SDS011;54614;47.576;7.524;2023-12-07T14:17:10;1.30;;;1.30;;
67816;SDS011;54614;47.576;7.524;2023-12-07T14:19:38;1.30;;;1.30;;
67816;SDS011;54614;47.576;7.524;2023-12-07T14:22:04;1.27;;;1.27;;
67816;SDS011;54614;47.576;7.524;2023-12-07T14:24:30;1.37;;;1.37;;
67816;SDS011;54614;47.576;7.524;2023-12-07T14:26:57;1.27;;;1.27;;
67816;SDS011;54614;47.576;7.524;2023-12-07T14:29:23;1.50;;;1.40;;
67816;SDS011;54614;47.576;7.524;2023-12-07T14:31:50;1.40;;;1.40;;
67816;SDS011;54614;47.576;7.524;2023-12-07T14:34:16;1.40;;;1.30;;
67816;SDS011;54614;47.576;7.524;2023-12-07T14:36:43;1.53;;;1.47;;
67816;SDS011;54614;47.576;7.524;2023-12-07T14:39:11;1.23;;;1.20;;
67816;SDS011;54614;47.576;7.524;2023-12-07T14:41:44;1.27;;;1.27;;
67816;SDS011;54614;47.576;7.524;2023-12-07T14:44:17;1.80;;;1.20;;
67816;SDS011;54614;47.576;7.524;2023-12-07T14:46:47;2.50;;;1.30;;
67816;SDS011;54614;47.576;7.524;2023-12-07T14:49:17;1.30;;;1.20;;
67816;SDS011;54614;47.576;7.524;2023-12-07T14:51:46;1.33;;;1.30;;
67816;SDS011;54614;47.576;7.524;2023-12-07T14:54:12;1.43;;;1.33;;
67816;SDS011;54614;47.576;7.524;2023-12-07T14:56:39;1.23;;;1.23;;
67816;SDS011;54614;47.576;7.524;2023-12-07T14:59:06;1.40;;;1.40;;
67816;SDS011;54614;47.576;7.524;2023-12-07T15:01:33;1.40;;;1.30;;
67816;SDS011;54614;47.576;7.524;2023-12-07T15:03:59;1.40;;;1.30;;
67816;SDS011;54614;47.576;7.524;2023-12-07T15:06:25;1.40;;;1.30;;
67816;SDS011;54614;47.576;7.524;2023-12-07T15:08:51;1.20;;;1.20;;